AKST,Max TemperatureF,Mean TemperatureF,Min TemperatureF,Max Dew PointF,MeanDew PointF,Min DewpointF,Max Humidity, Mean Humidity, Min Humidity, Max Sea Level PressureIn, Mean Sea Level PressureIn, Min Sea Level PressureIn, Max VisibilityMiles, Mean VisibilityMiles, Min VisibilityMiles, Max Wind SpeedMPH, Mean Wind SpeedMPH, Max Gust SpeedMPH,PrecipitationIn, CloudCover, Events, WindDirDegrees
2013-1-1,41,39,37,35,33,31,93,81,67,30.24,29.96,29.75,10,9,5,24,12,38,0.28,7,Rain,91
2013-1-2,37,34,30,35,32,30,100,94,86,30.00,29.88,29.80,10,8,1,13,8,20,0.00,7,Rain,302
2013-1-3,30,28,26,30,27,25,100,93,82,30.03,29.94,29.81,10,6,1,15,11,,0.01,6,Rain-Snow,292
2013-1-4,30,28,26,27,25,23,96,92,85,30.11,30.01,29.83,10,6,1,18,9,,0.04,7,Snow,294
2013-1-5,35,30,26,33,27,23,100,93,85,29.97,29.71,29.64,10,4,1,18,12,21,0.03,8,Snow,294
2013-1-6,37,34,30,34,32,28,100,89,79,29.69,29.61,29.44,10,10,10,13,8,20,0.00,8,Rain,76
2013-1-7,36,33,30,34,32,30,100,95,89,29.61,29.44,29.34,10,7,1,14,4,23,0.05,8,Rain-Snow,309
2013-1-8,36,30,25,34,31,21,100,92,85,29.79,29.68,29.62,10,8,0,15,9,25,0.02,7,Fog-Rain-Snow,341
2013-1-9,28,24,21,21,18,16,85,76,63,30.20,30.03,29.81,10,10,10,17,14,24,0.00,3,,303
2013-1-10,21,16,12,15,13,9,92,83,72,30.30,30.23,30.19,10,10,6,17,11,24,0.00,6,Snow,292
2013-1-11,24,20,15,20,16,10,93,86,79,30.30,30.24,30.20,10,8,2,20,14,,0.00,8,Snow,289
2013-1-12,26,24,21,25,21,18,100,90,80,30.41,30.37,30.32,10,4,1,15,10,,0.04,8,Snow,290
2013-1-13,39,32,24,36,30,23,100,92,86,30.33,30.25,30.15,10,9,2,16,10,32,0.01,8,Snow,11
2013-1-14,42,40,39,40,39,36,96,90,87,30.13,30.10,30.05,10,8,4,18,13,34,0.20,8,Rain,95
2013-1-15,39,36,33,39,35,33,100,95,87,30.30,30.15,30.03,10,8,2,17,10,34,0.19,8,Rain,86
2013-1-16,35,32,30,34,32,30,100,95,92,30.32,30.02,29.65,10,5,1,16,8,26,0.52,8,Rain-Snow,353
2013-1-17,39,37,35,38,34,25,93,89,64,29.79,29.51,29.38,10,9,4,20,14,36,0.21,8,Rain,97
2013-1-18,34,30,26,30,27,20,93,84,78,30.31,30.06,29.83,10,10,10,18,10,29,0.00,5,,329
2013-1-19,26,22,18,19,12,9,75,65,57,30.49,30.44,30.33,10,10,9,15,11,24,0.00,4,,302
2013-1-20,24,21,18,22,17,10,91,79,68,30.42,30.23,30.14,10,7,2,15,10,,0.02,7,Snow,289
2013-1-21,33,28,24,30,26,22,100,94,88,30.14,30.07,29.91,10,4,1,17,10,23,0.14,8,Snow,291
2013-1-22,34,32,30,32,30,28,100,92,85,29.90,29.73,29.65,10,8,2,17,11,,0.07,5,Snow,295
2013-1-23,37,34,32,34,32,30,100,94,87,29.65,29.61,29.59,10,6,2,12,3,20,0.18,8,Rain-Snow,99
2013-1-24,37,35,33,36,34,31,100,93,86,29.69,29.60,29.39,10,9,2,15,9,22,0.01,8,Rain,18
2013-1-25,39,36,32,36,33,30,100,92,86,29.46,29.41,29.36,10,8,2,16,9,22,0.15,8,Rain-Snow,92
2013-1-26,37,24,10,36,23,3,96,85,67,29.68,29.49,29.40,10,6,2,25,16,33,0.04,8,Rain-Snow,348
2013-1-27,10,6,1,7,0,-5,85,76,60,30.09,29.87,29.68,10,4,1,21,15,33,0.00,8,Snow,302
2013-1-28,1,0,-2,-4,-15,-19,78,51,41,30.53,30.37,30.10,10,8,0,26,17,39,0.00,4,Snow,297
2013-1-29,7,4,0,0,-5,-11,79,74,60,30.38,30.16,30.04,10,4,0,16,10,22,0.06,8,Snow,307
2013-1-30,21,14,6,16,8,-1,86,77,68,30.22,30.14,29.95,10,8,2,18,13,,0.00,8,Snow,291
2013-1-31,30,24,18,30,24,14,100,92,81,30.11,29.99,29.89,10,6,1,17,10,,0.00,8,Rain-Snow,281